sensor_id;sensor_type;location;lat;lon;timestamp;pressure;altitude;pressure_sealevel;temperature;humidity
3524;BME280;1776;53.330;11.498;2023-06-22T00:02:18;26798.50;;;-147.39;53.62
3524;BME280;1776;53.330;11.498;2023-06-22T00:04:44;26782.22;;;-147.39;53.67
3524;BME280;1776;53.330;11.498;2023-06-22T00:07:09;26761.88;;;-147.39;53.84
3524;BME280;1776;53.330;11.498;2023-06-22T00:09:36;26749.66;;;-147.39;54.08
3524;BME280;1776;53.330;11.498;2023-06-22T00:12:01;26729.31;;;-147.39;54.06
3524;BME280;1776;53.330;11.498;2023-06-22T00:14:26;26700.81;;;-147.39;54.09
3524;BME280;1776;53.330;11.498;2023-06-22T00:16:52;26733.38;;;-147.39;54.03
3524;BME280;1776;53.330;11.498;2023-06-22T00:19:22;26729.31;;;-147.39;54.22
3524;BME280;1776;53.330;11.498;2023-06-22T00:21:48;26692.69;;;-147.39;54.53
3524;BME280;1776;53.330;11.498;2023-06-22T00:24:18;26678.44;;;-147.39;54.52
3524;BME280;1776;53.330;11.498;2023-06-22T00:26:43;26649.97;;;-147.39;54.58
3524;BME280;1776;53.330;11.498;2023-06-22T00:29:08;26656.06;;;-147.39;54.42
3524;BME280;1776;53.330;11.498;2023-06-22T00:31:34;26639.78;;;-147.39;54.86
3524;BME280;1776;53.330;11.498;2023-06-22T00:33:59;26631.66;;;-147.39;54.71
3524;BME280;1776;53.330;11.498;2023-06-22T00:36:24;26627.56;;;-147.39;54.87
3524;BME280;1776;53.330;11.498;2023-06-22T00:38:50;26597.06;;;-147.39;54.81
3524;BME280;1776;53.330;11.498;2023-06-22T00:41:16;26572.66;;;-147.39;54.82
3524;BME280;1776;53.330;11.498;2023-06-22T00:43:41;26568.56;;;-147.39;54.64
3524;BME280;1776;53.330;11.498;2023-06-22T00:46:07;26582.81;;;-147.39;54.81
3524;BME280;1776;53.330;11.498;2023-06-22T00:48:32;26582.81;;;-147.39;54.85
3524;BME280;1776;53.330;11.498;2023-06-22T00:50:58;26542.13;;;-147.39;55.06
3524;BME280;1776;53.330;11.498;2023-06-22T00:53:24;26536.03;;;-147.39;55.26
3524;BME280;1776;53.330;11.498;2023-06-22T00:55:49;26536.03;;;-147.39;54.85
3524;BME280;1776;53.330;11.498;2023-06-22T00:58:18;26529.91;;;-147.39;54.83
3524;BME280;1776;53.330;11.498;2023-06-22T01:00:47;26593.00;;;-147.39;54.79
3524;BME280;1776;53.330;11.498;2023-06-22T01:03:12;26552.31;;;-147.39;54.90
3524;BME280;1776;53.330;11.498;2023-06-22T01:05:38;26481.09;;;-147.39;55.02
3524;BME280;1776;53.330;11.498;2023-06-22T01:10:59;26491.25;;;-147.39;55.41
3524;BME280;1776;53.330;11.498;2023-06-22T01:13:50;26513.66;;;-147.39;55.69
3524;BME280;1776;53.330;11.498;2023-06-22T01:16:23;26489.22;;;-147.39;55.13
3524;BME280;1776;53.330;11.498;2023-06-22T01:18:52;26460.75;;;-147.39;55.11
3524;BME280;1776;53.330;11.498;2023-06-22T01:21:19;26479.06;;;-147.39;55.20
3524;BME280;1776;53.330;11.498;2023-06-22T01:23:55;26462.78;;;-147.39;55.20
3524;BME280;1776;53.330;11.498;2023-06-22T01:29:12;26468.88;;;-147.39;55.18
3524;BME280;1776;53.330;11.498;2023-06-22T01:31:40;26422.09;;;-147.39;55.15
3524;BME280;1776;53.330;11.498;2023-06-22T01:34:08;26416.00;;;-147.39;55.41
3524;BME280;1776;53.330;11.498;2023-06-22T01:36:34;26424.13;;;-147.39;55.40
3524;BME280;1776;53.330;11.498;2023-06-22T01:39:00;26395.66;;;-147.39;55.44
3524;BME280;1776;53.330;11.498;2023-06-22T01:41:28;26424.13;;;-147.39;55.68
3524;BME280;1776;53.330;11.498;2023-06-22T01:43:55;26422.09;;;-147.39;55.66
3524;BME280;1776;53.330;11.498;2023-06-22T01:46:21;26432.25;;;-147.39;55.61
3524;BME280;1776;53.330;11.498;2023-06-22T01:48:47;26409.88;;;-147.39;55.67
3524;BME280;1776;53.330;11.498;2023-06-22T01:51:14;26365.13;;;-147.39;55.73
3524;BME280;1776;53.330;11.498;2023-06-22T01:53:39;26393.59;;;-147.39;55.73
3524;BME280;1776;53.330;11.498;2023-06-22T01:56:05;26397.69;;;-147.39;55.67
3524;BME280;1776;53.330;11.498;2023-06-22T01:58:31;26375.31;;;-147.39;55.64
3524;BME280;1776;53.330;11.498;2023-06-22T02:01:24;26352.91;;;-147.39;56.42
3524;BME280;1776;53.330;11.498;2023-06-22T02:04:01;26381.41;;;-147.39;56.12
3524;BME280;1776;53.330;11.498;2023-06-22T02:06:32;26332.56;;;-147.39;56.19
3524;BME280;1776;53.330;11.498;2023-06-22T02:09:02;26338.69;;;-147.39;56.14
3524;BME280;1776;53.330;11.498;2023-06-22T02:11:28;26326.47;;;-147.39;56.37
3524;BME280;1776;53.330;11.498;2023-06-22T02:13:55;26295.97;;;-147.39;56.35
3524;BME280;1776;53.330;11.498;2023-06-22T02:16:22;26316.31;;;-147.39;56.42
3524;BME280;1776;53.330;11.498;2023-06-22T02:18:48;26314.25;;;-147.39;56.84
3524;BME280;1776;53.330;11.498;2023-06-22T02:21:18;26261.38;;;-147.39;56.86
3524;BME280;1776;53.330;11.498;2023-06-22T02:23:43;26289.84;;;-147.39;57.25
3524;BME280;1776;53.330;11.498;2023-06-22T02:26:08;26287.81;;;-147.39;56.94
3524;BME280;1776;53.330;11.498;2023-06-22T02:28:34;26298.00;;;-147.39;57.04
3524;BME280;1776;53.330;11.498;2023-06-22T02:30:59;26228.81;;;-147.39;56.99
3524;BME280;1776;53.330;11.498;2023-06-22T02:33:25;26224.75;;;-147.39;57.40
3524;BME280;1776;53.330;11.498;2023-06-22T02:35:50;26202.38;;;-147.39;57.44
3524;BME280;1776;53.330;11.498;2023-06-22T02:38:15;26293.91;;;-147.39;57.74
3524;BME280;1776;53.330;11.498;2023-06-22T02:40:42;26247.13;;;-147.39;57.56
3524;BME280;1776;53.330;11.498;2023-06-22T02:43:08;26186.09;;;-147.39;57.40
3524;BME280;1776;53.330;11.498;2023-06-22T02:45:33;26188.13;;;-147.39;57.65
3524;BME280;1776;53.330;11.498;2023-06-22T02:47:58;26190.16;;;-147.39;57.82
3524;BME280;1776;53.330;11.498;2023-06-22T02:50:24;26151.50;;;-147.39;57.93
3524;BME280;1776;53.330;11.498;2023-06-22T02:52:49;26155.59;;;-147.39;57.77
3524;BME280;1776;53.330;11.498;2023-06-22T02:55:15;26131.16;;;-147.39;57.95
3524;BME280;1776;53.330;11.498;2023-06-22T02:57:40;26137.28;;;-147.39;58.12
3524;BME280;1776;53.330;11.498;2023-06-22T03:00:09;26092.53;;;-147.39;58.19
3524;BME280;1776;53.330;11.498;2023-06-22T03:02:45;26106.75;;;-147.39;58.01
3524;BME280;1776;53.330;11.498;2023-06-22T03:05:11;25887.06;;;-147.39;58.18
3524;BME280;1776;53.330;11.498;2023-06-22T03:07:39;26102.69;;;-147.39;58.11
3524;BME280;1776;53.330;11.498;2023-06-22T03:10:05;26082.34;;;-147.39;58.40
3524;BME280;1776;53.330;11.498;2023-06-22T03:12:31;26062.00;;;-147.39;58.09
3524;BME280;1776;53.330;11.498;2023-06-22T03:14:56;26043.69;;;-147.39;58.18
3524;BME280;1776;53.330;11.498;2023-06-22T03:17:21;26031.50;;;-147.39;58.38
3524;BME280;1776;53.330;11.498;2023-06-22T03:19:47;26051.84;;;-147.39;58.32
3524;BME280;1776;53.330;11.498;2023-06-22T03:22:12;26033.53;;;-147.39;58.40
3524;BME280;1776;53.330;11.498;2023-06-22T03:24:37;26009.13;;;-147.39;58.66
3524;BME280;1776;53.330;11.498;2023-06-22T03:27:04;25952.16;;;-147.39;58.61
3524;BME280;1776;53.330;11.498;2023-06-22T03:29:30;26057.94;;;-147.39;58.18
3524;BME280;1776;53.330;11.498;2023-06-22T03:31:56;26017.25;;;-147.39;58.31
3524;BME280;1776;53.330;11.498;2023-06-22T03:34:21;26029.47;;;-147.39;58.65
3524;BME280;1776;53.330;11.498;2023-06-22T03:36:46;26000.97;;;-147.39;58.72
3524;BME280;1776;53.330;11.498;2023-06-22T03:39:11;26080.31;;;-147.39;58.74
3524;BME280;1776;53.330;11.498;2023-06-22T03:41:37;26017.25;;;-147.39;58.84
3524;BME280;1776;53.330;11.498;2023-06-22T03:44:02;26003.00;;;-147.39;59.05
3524;BME280;1776;53.330;11.498;2023-06-22T03:46:27;25996.91;;;-147.39;58.89
3524;BME280;1776;53.330;11.498;2023-06-22T03:48:53;26011.16;;;-147.39;58.93
3524;BME280;1776;53.330;11.498;2023-06-22T03:51:18;26031.50;;;-147.39;59.10
3524;BME280;1776;53.330;11.498;2023-06-22T03:53:43;26003.00;;;-147.39;58.95
3524;BME280;1776;53.330;11.498;2023-06-22T03:56:09;26017.25;;;-147.39;58.91
3524;BME280;1776;53.330;11.498;2023-06-22T03:58:34;25952.16;;;-147.39;59.19
3524;BME280;1776;53.330;11.498;2023-06-22T04:01:01;26005.03;;;-147.39;58.95
3524;BME280;1776;53.330;11.498;2023-06-22T04:03:26;25992.84;;;-147.39;58.63
3524;BME280;1776;53.330;11.498;2023-06-22T04:05:52;26059.97;;;-147.39;59.02
3524;BME280;1776;53.330;11.498;2023-06-22T04:08:18;26039.63;;;-147.39;58.75
3524;BME280;1776;53.330;11.498;2023-06-22T04:10:43;26011.16;;;-147.39;58.74
3524;BME280;1776;53.330;11.498;2023-06-22T04:13:09;26013.19;;;-147.39;58.68
3524;BME280;1776;53.330;11.498;2023-06-22T04:15:34;26003.00;;;-147.39;58.44
3524;BME280;1776;53.330;11.498;2023-06-22T04:17:59;26035.56;;;-147.39;58.34
3524;BME280;1776;53.330;11.498;2023-06-22T04:20:25;26055.91;;;-147.39;58.93
3524;BME280;1776;53.330;11.498;2023-06-22T04:22:54;26013.19;;;-147.39;58.78
3524;BME280;1776;53.330;11.498;2023-06-22T04:25:20;26025.38;;;-147.39;58.78
3524;BME280;1776;53.330;11.498;2023-06-22T04:27:46;26035.56;;;-147.39;58.87
3524;BME280;1776;53.330;11.498;2023-06-22T04:30:12;26031.50;;;-147.39;58.29
3524;BME280;1776;53.330;11.498;2023-06-22T04:32:41;26005.03;;;-147.39;58.53
3524;BME280;1776;53.330;11.498;2023-06-22T04:35:06;26037.59;;;-147.39;58.45
3524;BME280;1776;53.330;11.498;2023-06-22T04:37:33;26066.06;;;-147.39;58.29
3524;BME280;1776;53.330;11.498;2023-06-22T04:39:58;26096.59;;;-147.39;58.06
3524;BME280;1776;53.330;11.498;2023-06-22T04:42:26;26151.50;;;-147.39;57.78
3524;BME280;1776;53.330;11.498;2023-06-22T04:44:52;26098.63;;;-147.39;57.67
3524;BME280;1776;53.330;11.498;2023-06-22T04:47:17;26157.63;;;-147.39;57.69
3524;BME280;1776;53.330;11.498;2023-06-22T04:49:42;26118.97;;;-147.39;57.59
3524;BME280;1776;53.330;11.498;2023-06-22T04:52:10;26127.09;;;-147.39;57.18
3524;BME280;1776;53.330;11.498;2023-06-22T04:54:37;26167.78;;;-147.39;56.76
3524;BME280;1776;53.330;11.498;2023-06-22T04:57:04;26196.28;;;-147.39;56.70
3524;BME280;1776;53.330;11.498;2023-06-22T04:59:31;26155.59;;;-147.39;56.72
3524;BME280;1776;53.330;11.498;2023-06-22T05:01:57;26228.81;;;-147.39;56.44
3524;BME280;1776;53.330;11.498;2023-06-22T05:04:23;26196.28;;;-147.39;57.68
3524;BME280;1776;53.330;11.498;2023-06-22T05:06:49;26157.63;;;-147.39;56.97
3524;BME280;1776;53.330;11.498;2023-06-22T05:09:14;26230.84;;;-147.39;55.98
3524;BME280;1776;53.330;11.498;2023-06-22T05:11:40;26283.75;;;-147.39;55.17
3524;BME280;1776;53.330;11.498;2023-06-22T05:14:05;26312.22;;;-147.39;54.35
3524;BME280;1776;53.330;11.498;2023-06-22T05:16:30;26357.00;;;-147.39;54.80
3524;BME280;1776;53.330;11.498;2023-06-22T05:18:56;26295.97;;;-147.39;55.16
3524;BME280;1776;53.330;11.498;2023-06-22T05:21:25;26357.00;;;-147.39;54.34
3524;BME280;1776;53.330;11.498;2023-06-22T05:23:52;26326.47;;;-147.39;54.47
3524;BME280;1776;53.330;11.498;2023-06-22T05:26:18;26352.91;;;-147.39;54.02
3524;BME280;1776;53.330;11.498;2023-06-22T05:28:44;26375.31;;;-147.39;54.04
3524;BME280;1776;53.330;11.498;2023-06-22T05:31:13;26420.06;;;-147.39;53.93
3524;BME280;1776;53.330;11.498;2023-06-22T05:33:40;26397.69;;;-147.39;53.88
3524;BME280;1776;53.330;11.498;2023-06-22T05:36:05;26434.28;;;-147.39;53.91
3524;BME280;1776;53.330;11.498;2023-06-22T05:38:30;26405.81;;;-147.39;54.51
3524;BME280;1776;53.330;11.498;2023-06-22T05:40:56;26444.47;;;-147.39;53.37
3524;BME280;1776;53.330;11.498;2023-06-22T05:43:21;26460.75;;;-147.39;53.39
3524;BME280;1776;53.330;11.498;2023-06-22T05:45:46;26462.78;;;-147.39;53.96
3524;BME280;1776;53.330;11.498;2023-06-22T05:48:11;26464.81;;;-147.39;54.60
3524;BME280;1776;53.330;11.498;2023-06-22T05:50:37;26454.66;;;-147.39;54.65
3524;BME280;1776;53.330;11.498;2023-06-22T05:53:02;26489.22;;;-147.39;54.29
3524;BME280;1776;53.330;11.498;2023-06-22T05:55:28;26464.81;;;-147.39;54.90
3524;BME280;1776;53.330;11.498;2023-06-22T05:57:53;26497.38;;;-147.39;55.05
3524;BME280;1776;53.330;11.498;2023-06-22T06:00:18;26503.47;;;-147.39;54.83
3524;BME280;1776;53.330;11.498;2023-06-22T06:02:44;26505.50;;;-147.39;54.99
3524;BME280;1776;53.330;11.498;2023-06-22T06:05:11;26544.16;;;-147.39;54.60
3524;BME280;1776;53.330;11.498;2023-06-22T06:07:36;26501.44;;;-147.39;54.81
3524;BME280;1776;53.330;11.498;2023-06-22T06:10:02;26531.97;;;-147.39;54.31
3524;BME280;1776;53.330;11.498;2023-06-22T06:12:29;26529.91;;;-147.39;54.09
3524;BME280;1776;53.330;11.498;2023-06-22T06:14:54;26513.66;;;-147.39;54.72
3524;BME280;1776;53.330;11.498;2023-06-22T06:17:21;26546.19;;;-147.39;54.62
3524;BME280;1776;53.330;11.498;2023-06-22T06:19:46;26568.56;;;-147.39;53.89
3524;BME280;1776;53.330;11.498;2023-06-22T06:22:12;26645.88;;;-147.39;53.83
3524;BME280;1776;53.330;11.498;2023-06-22T06:24:37;26631.66;;;-147.39;53.32
3524;BME280;1776;53.330;11.498;2023-06-22T06:27:02;26643.84;;;-147.39;53.24
3524;BME280;1776;53.330;11.498;2023-06-22T06:29:29;26582.81;;;-147.39;53.92
3524;BME280;1776;53.330;11.498;2023-06-22T06:31:55;26607.22;;;-147.39;53.70
3524;BME280;1776;53.330;11.498;2023-06-22T06:34:20;26664.19;;;-147.39;53.57
3524;BME280;1776;53.330;11.498;2023-06-22T06:36:45;26662.16;;;-147.39;53.25
3524;BME280;1776;53.330;11.498;2023-06-22T06:39:11;26711.00;;;-147.39;52.80
3524;BME280;1776;53.330;11.498;2023-06-22T06:41:37;26682.50;;;-147.39;52.56
3524;BME280;1776;53.330;11.498;2023-06-22T06:44:02;26708.97;;;-147.39;52.58
3524;BME280;1776;53.330;11.498;2023-06-22T06:46:27;26698.78;;;-147.39;52.67
3524;BME280;1776;53.330;11.498;2023-06-22T06:48:52;26721.16;;;-147.39;52.50
3524;BME280;1776;53.330;11.498;2023-06-22T06:51:18;26770.00;;;-147.39;52.09
3524;BME280;1776;53.330;11.498;2023-06-22T06:53:43;26776.09;;;-147.39;51.89
3524;BME280;1776;53.330;11.498;2023-06-22T06:56:08;26814.75;;;-147.39;51.48
3524;BME280;1776;53.330;11.498;2023-06-22T06:58:35;26405.81;;;-147.39;51.70
3524;BME280;1776;53.330;11.498;2023-06-22T07:01:01;26822.91;;;-147.39;51.28
3524;BME280;1776;53.330;11.498;2023-06-22T07:03:28;26845.28;;;-147.39;51.17
3524;BME280;1776;53.330;11.498;2023-06-22T07:05:53;26859.53;;;-147.39;51.11
3524;BME280;1776;53.330;11.498;2023-06-22T07:08:18;26859.53;;;-147.39;50.55
3524;BME280;1776;53.330;11.498;2023-06-22T07:10:43;26890.06;;;-147.39;50.53
3524;BME280;1776;53.330;11.498;2023-06-22T07:13:09;26875.81;;;-147.39;50.51
3524;BME280;1776;53.330;11.498;2023-06-22T07:15:34;26888.00;;;-147.39;50.80
3524;BME280;1776;53.330;11.498;2023-06-22T07:17:59;26906.31;;;-147.39;50.47
3524;BME280;1776;53.330;11.498;2023-06-22T07:20:24;26896.16;;;-147.39;50.93
3524;BME280;1776;53.330;11.498;2023-06-22T07:22:51;26896.16;;;-147.39;50.63
3524;BME280;1776;53.330;11.498;2023-06-22T07:25:16;26957.19;;;-147.39;50.35
3524;BME280;1776;53.330;11.498;2023-06-22T07:27:56;26940.91;;;-147.39;50.21
3524;BME280;1776;53.330;11.498;2023-06-22T07:30:22;27001.97;;;-147.39;50.16
3524;BME280;1776;53.330;11.498;2023-06-22T07:32:48;26995.84;;;-147.39;49.35
3524;BME280;1776;53.330;11.498;2023-06-22T07:35:13;27006.03;;;-147.39;48.88
3524;BME280;1776;53.330;11.498;2023-06-22T07:37:38;27046.72;;;-147.39;48.68
3524;BME280;1776;53.330;11.498;2023-06-22T07:40:05;27077.25;;;-147.39;48.29
3524;BME280;1776;53.330;11.498;2023-06-22T07:42:31;27097.59;;;-147.39;48.27
3524;BME280;1776;53.330;11.498;2023-06-22T07:44:58;27130.16;;;-147.39;47.54
3524;BME280;1776;53.330;11.498;2023-06-22T07:47:23;27136.25;;;-147.39;47.33
3524;BME280;1776;53.330;11.498;2023-06-22T07:49:53;27148.47;;;-147.39;46.83
3524;BME280;1776;53.330;11.498;2023-06-22T07:52:20;27168.81;;;-147.39;46.70
3524;BME280;1776;53.330;11.498;2023-06-22T07:54:46;27201.38;;;-147.39;46.63
3524;BME280;1776;53.330;11.498;2023-06-22T07:57:11;27195.28;;;-147.39;46.49
3524;BME280;1776;53.330;11.498;2023-06-22T07:59:36;27211.56;;;-147.39;46.20
3524;BME280;1776;53.330;11.498;2023-06-22T08:02:02;27246.16;;;-147.39;45.71
3524;BME280;1776;53.330;11.498;2023-06-22T08:04:28;27294.97;;;-147.39;44.54
3524;BME280;1776;53.330;11.498;2023-06-22T08:06:54;27288.88;;;-147.39;43.90
3524;BME280;1776;53.330;11.498;2023-06-22T08:09:19;27294.97;;;-147.39;43.81
3524;BME280;1776;53.330;11.498;2023-06-22T08:11:44;27315.31;;;-147.39;43.71
3524;BME280;1776;53.330;11.498;2023-06-22T08:14:10;27415.03;;;-147.39;43.65
3524;BME280;1776;53.330;11.498;2023-06-22T08:16:35;27413.00;;;-147.39;43.29
3524;BME280;1776;53.330;11.498;2023-06-22T08:19:00;27286.84;;;-147.39;43.88
3524;BME280;1776;53.330;11.498;2023-06-22T08:21:25;27343.81;;;-147.39;43.60
3524;BME280;1776;53.330;11.498;2023-06-22T08:23:51;27382.47;;;-147.39;43.83
3524;BME280;1776;53.330;11.498;2023-06-22T08:26:16;27425.22;;;-147.39;43.56
3524;BME280;1776;53.330;11.498;2023-06-22T08:28:41;27480.16;;;-147.39;43.63
3524;BME280;1776;53.330;11.498;2023-06-22T08:31:06;27526.97;;;-147.39;43.60
3524;BME280;1776;53.330;11.498;2023-06-22T08:33:32;27592.09;;;-147.39;42.95
3524;BME280;1776;53.330;11.498;2023-06-22T08:35:58;27645.00;;;-147.39;42.88
3524;BME280;1776;53.330;11.498;2023-06-22T08:38:23;27679.59;;;-147.39;42.15
3524;BME280;1776;53.330;11.498;2023-06-22T08:40:49;27691.81;;;-147.39;42.37
3524;BME280;1776;53.330;11.498;2023-06-22T08:43:15;27730.47;;;-147.39;41.80
3524;BME280;1776;53.330;11.498;2023-06-22T08:45:40;27813.91;;;-147.39;41.29
3524;BME280;1776;53.330;11.498;2023-06-22T08:48:05;27836.31;;;-147.39;41.44
3524;BME280;1776;53.330;11.498;2023-06-22T08:50:30;27655.19;;;-147.39;40.94
3524;BME280;1776;53.330;11.498;2023-06-22T08:52:56;27687.75;;;-147.39;41.55
3524;BME280;1776;53.330;11.498;2023-06-22T08:55:21;27734.56;;;-147.39;41.60
3524;BME280;1776;53.330;11.498;2023-06-22T08:57:46;27787.47;;;-147.39;40.98
3524;BME280;1776;53.330;11.498;2023-06-22T09:00:12;27864.81;;;-147.39;41.36
3524;BME280;1776;53.330;11.498;2023-06-22T09:02:41;27820.03;;;-147.39;40.46
3524;BME280;1776;53.330;11.498;2023-06-22T09:05:07;27864.81;;;-147.39;41.28
3524;BME280;1776;53.330;11.498;2023-06-22T09:07:32;27895.34;;;-147.39;41.22
3524;BME280;1776;53.330;11.498;2023-06-22T09:09:59;27938.06;;;-147.39;41.18
3524;BME280;1776;53.330;11.498;2023-06-22T09:12:24;27980.81;;;-147.39;40.76
3524;BME280;1776;53.330;11.498;2023-06-22T09:14:52;28076.47;;;-147.39;40.39
3524;BME280;1776;53.330;11.498;2023-06-22T09:17:17;28107.00;;;-147.39;39.83
3524;BME280;1776;53.330;11.498;2023-06-22T09:19:42;28157.88;;;-147.39;40.09
3524;BME280;1776;53.330;11.498;2023-06-22T09:22:08;28212.84;;;-147.39;39.90
3524;BME280;1776;53.330;11.498;2023-06-22T09:24:33;28280.00;;;-147.39;39.73
3524;BME280;1776;53.330;11.498;2023-06-22T09:26:58;28400.09;;;-147.39;39.60
3524;BME280;1776;53.330;11.498;2023-06-22T09:29:24;28459.13;;;-147.39;39.10
3524;BME280;1776;53.330;11.498;2023-06-22T09:31:49;28526.31;;;-147.39;38.19
3524;BME280;1776;53.330;11.498;2023-06-22T09:34:15;28455.06;;;-147.39;38.65
3524;BME280;1776;53.330;11.498;2023-06-22T09:36:46;28377.72;;;-147.39;39.25
3524;BME280;1776;53.330;11.498;2023-06-22T09:39:11;28404.19;;;-147.39;39.46
3524;BME280;1776;53.330;11.498;2023-06-22T09:41:36;28432.69;;;-147.39;39.45
3524;BME280;1776;53.330;11.498;2023-06-22T09:44:01;28473.38;;;-147.39;39.55
3524;BME280;1776;53.330;11.498;2023-06-22T09:46:27;28446.91;;;-147.39;39.50
3524;BME280;1776;53.330;11.498;2023-06-22T09:48:53;28542.59;;;-147.39;39.09
3524;BME280;1776;53.330;11.498;2023-06-22T09:51:18;28607.72;;;-147.39;38.65
3524;BME280;1776;53.330;11.498;2023-06-22T09:53:45;28624.03;;;-147.39;38.37
3524;BME280;1776;53.330;11.498;2023-06-22T09:56:10;28735.97;;;-147.39;38.29
3524;BME280;1776;53.330;11.498;2023-06-22T09:58:41;28854.06;;;-147.39;38.09
3524;BME280;1776;53.330;11.498;2023-06-22T10:01:07;28961.94;;;-147.39;37.88
3524;BME280;1776;53.330;11.498;2023-06-22T10:03:32;29012.84;;;-147.39;37.23
3524;BME280;1776;53.330;11.498;2023-06-22T10:05:57;29065.78;;;-147.39;36.50
3524;BME280;1776;53.330;11.498;2023-06-22T10:08:23;29063.75;;;-147.39;36.73
3524;BME280;1776;53.330;11.498;2023-06-22T10:10:48;29000.63;;;-147.39;37.69
3524;BME280;1776;53.330;11.498;2023-06-22T10:13:13;28821.47;;;-147.39;36.82
3524;BME280;1776;53.330;11.498;2023-06-22T10:15:39;28733.94;;;-147.39;37.98
3524;BME280;1776;53.330;11.498;2023-06-22T10:18:05;28841.84;;;-147.39;37.45
3524;BME280;1776;53.330;11.498;2023-06-22T10:20:30;28937.53;;;-147.39;37.15
3524;BME280;1776;53.330;11.498;2023-06-22T10:22:56;28966.03;;;-147.39;37.96
3524;BME280;1776;53.330;11.498;2023-06-22T10:25:21;28894.75;;;-147.39;37.60
3524;BME280;1776;53.330;11.498;2023-06-22T10:27:47;28896.81;;;-147.39;37.95
3524;BME280;1776;53.330;11.498;2023-06-22T10:30:12;28882.56;;;-147.39;37.13
3524;BME280;1776;53.330;11.498;2023-06-22T10:32:39;28929.38;;;-147.39;37.57
3524;BME280;1776;53.330;11.498;2023-06-22T10:35:04;28856.09;;;-147.39;36.73
3524;BME280;1776;53.330;11.498;2023-06-22T10:37:30;28911.06;;;-147.39;37.60
3524;BME280;1776;53.330;11.498;2023-06-22T10:39:55;29004.69;;;-147.39;37.68
3524;BME280;1776;53.330;11.498;2023-06-22T10:42:20;29126.84;;;-147.39;37.55
3524;BME280;1776;53.330;11.498;2023-06-22T10:44:46;29206.25;;;-147.39;37.08
3524;BME280;1776;53.330;11.498;2023-06-22T10:47:11;29397.63;;;-147.39;36.84
3524;BME280;1776;53.330;11.498;2023-06-22T10:49:38;29483.16;;;-147.39;35.98
3524;BME280;1776;53.330;11.498;2023-06-22T10:52:03;29548.31;;;-147.39;35.42
3524;BME280;1776;53.330;11.498;2023-06-22T10:54:29;29613.47;;;-147.39;35.56
3524;BME280;1776;53.330;11.498;2023-06-22T10:56:54;29436.31;;;-147.39;35.42
3524;BME280;1776;53.330;11.498;2023-06-22T10:59:19;29289.72;;;-147.39;35.55
3524;BME280;1776;53.330;11.498;2023-06-22T11:01:46;29240.88;;;-147.39;36.10
3524;BME280;1776;53.330;11.498;2023-06-22T11:04:12;29299.91;;;-147.39;36.58
3524;BME280;1776;53.330;11.498;2023-06-22T11:06:37;29283.63;;;-147.39;36.39
3524;BME280;1776;53.330;11.498;2023-06-22T11:09:02;29275.47;;;-147.39;36.87
3524;BME280;1776;53.330;11.498;2023-06-22T11:11:28;29352.84;;;-147.39;36.63
3524;BME280;1776;53.330;11.498;2023-06-22T11:13:54;29340.63;;;-147.39;36.59
3524;BME280;1776;53.330;11.498;2023-06-22T11:16:19;29371.16;;;-147.39;36.58
3524;BME280;1776;53.330;11.498;2023-06-22T11:18:44;29424.09;;;-147.39;36.88
3524;BME280;1776;53.330;11.498;2023-06-22T11:21:10;29550.34;;;-147.39;36.37
3524;BME280;1776;53.330;11.498;2023-06-22T11:23:35;29615.50;;;-147.39;35.87
3524;BME280;1776;53.330;11.498;2023-06-22T11:26:00;29648.06;;;-147.39;36.00
3524;BME280;1776;53.330;11.498;2023-06-22T11:28:25;29633.81;;;-147.39;35.30
3524;BME280;1776;53.330;11.498;2023-06-22T11:30:51;29529.97;;;-147.39;35.92
3524;BME280;1776;53.330;11.498;2023-06-22T11:33:17;29342.66;;;-147.39;35.54
3524;BME280;1776;53.330;11.498;2023-06-22T11:35:42;29173.69;;;-147.39;36.40
3524;BME280;1776;53.330;11.498;2023-06-22T11:38:07;29110.56;;;-147.39;37.23
3524;BME280;1776;53.330;11.498;2023-06-22T11:40:32;29155.34;;;-147.39;37.27
3524;BME280;1776;53.330;11.498;2023-06-22T11:42:58;29273.44;;;-147.39;37.48
3524;BME280;1776;53.330;11.498;2023-06-22T11:45:23;29216.44;;;-147.39;37.40
3524;BME280;1776;53.330;11.498;2023-06-22T11:47:48;29192.00;;;-147.39;37.67
3524;BME280;1776;53.330;11.498;2023-06-22T11:50:14;29291.75;;;-147.39;37.58
3524;BME280;1776;53.330;11.498;2023-06-22T11:52:39;29238.81;;;-147.39;37.26
3524;BME280;1776;53.330;11.498;2023-06-22T11:55:05;29279.53;;;-147.39;37.34
3524;BME280;1776;53.330;11.498;2023-06-22T11:57:36;29344.69;;;-147.39;37.42
3524;BME280;1776;53.330;11.498;2023-06-22T12:00:03;29342.66;;;-147.39;36.73
3524;BME280;1776;53.330;11.498;2023-06-22T12:02:42;29389.50;;;-147.39;36.73
3524;BME280;1776;53.330;11.498;2023-06-22T12:05:07;29126.84;;;-147.39;36.60
3524;BME280;1776;53.330;11.498;2023-06-22T12:07:33;29434.28;;;-147.39;36.53
3524;BME280;1776;53.330;11.498;2023-06-22T12:09:58;29479.06;;;-147.39;36.73
3524;BME280;1776;53.330;11.498;2023-06-22T12:12:24;29536.09;;;-147.39;35.90
3524;BME280;1776;53.330;11.498;2023-06-22T12:14:49;29574.78;;;-147.39;35.72
3524;BME280;1776;53.330;11.498;2023-06-22T12:17:14;29481.09;;;-147.39;35.28
3524;BME280;1776;53.330;11.498;2023-06-22T12:19:40;29367.09;;;-147.39;36.37
3524;BME280;1776;53.330;11.498;2023-06-22T12:22:05;29385.41;;;-147.39;36.20
3524;BME280;1776;53.330;11.498;2023-06-22T12:24:30;29397.63;;;-147.39;36.01
3524;BME280;1776;53.330;11.498;2023-06-22T12:26:55;29389.50;;;-147.39;36.48
3524;BME280;1776;53.330;11.498;2023-06-22T12:29:21;29320.25;;;-147.39;37.19
3524;BME280;1776;53.330;11.498;2023-06-22T12:31:46;29379.31;;;-147.39;36.91
3524;BME280;1776;53.330;11.498;2023-06-22T12:34:11;29375.25;;;-147.39;37.08
3524;BME280;1776;53.330;11.498;2023-06-22T12:36:36;29415.97;;;-147.39;36.58
3524;BME280;1776;53.330;11.498;2023-06-22T12:39:02;29458.72;;;-147.39;36.47
3524;BME280;1776;53.330;11.498;2023-06-22T12:41:27;29454.63;;;-147.39;36.58
3524;BME280;1776;53.330;11.498;2023-06-22T12:43:52;29521.84;;;-147.39;36.32
3524;BME280;1776;53.330;11.498;2023-06-22T12:46:17;29503.50;;;-147.39;36.34
3524;BME280;1776;53.330;11.498;2023-06-22T12:48:43;29509.63;;;-147.39;36.35
3524;BME280;1776;53.330;11.498;2023-06-22T12:51:09;29534.06;;;-147.39;36.19